FW2286 Weather Reports


Display with metric or nautical units.
time (UTC)temp
F
wind
direction
speed
MPH
gust
MPH
rain 1hr
in
rain 24hr
in
rain mn
in
humidity
%
barometer
mb
20210805004616 87 73 0.0 3.0 0.00 0.01 0.01 34 1013.1
20210805003143 87 100 0.0 2.0 0.00 0.01 0.01 33 1013.1
20210805001622 88 40 0.0 2.0 0.00 0.01 0.01 34 1013.0
20210805000141 87 285 0.0 2.0 0.00 0.01 0.01 35 1013.0
20210804234652 88 56 0.0 3.0 0.00 0.01 0.01 35 1013.0
20210804233102 87 34 0.0 3.0 0.00 0.01 0.01 36 1013.1
20210804231759 87 42 0.0 5.0 0.00 0.01 0.01 34 1013.0
20210804230131 87 53 0.0 2.0 0.00 0.01 0.01 35 1013.1
20210804224605 88 61 1.0 5.0 0.00 0.01 0.01 35 1012.9
20210804223103 87 9 0.0 5.0 0.00 0.01 0.01 36 1012.9
20210804221656 86 249 1.0 10.0 0.00 0.01 0.01 36 1013.2
20210804220056 85 227 1.0 6.0 0.00 0.01 0.01 38 1013.3
20210804214617 84 346 2.0 9.0 0.00 0.01 0.01 37 1013.5
20210804213202 85 328 2.0 9.0 0.00 0.01 0.01 37 1013.4
20210804211557 85 61 0.0 5.0 0.00 0.01 0.01 41 1013.4
20210804210043 85 53 0.0 3.0 0.00 0.01 0.01 41 1013.5
20210804204627 85 73 1.0 3.0 0.00 0.01 0.01 41 1013.4
20210804203110 86 121 0.0 6.0 0.00 0.01 0.01 38 1013.3
20210804201700 88 88 1.0 4.0 0.00 0.01 0.01 37 1013.4
20210804200119 86 57 1.0 5.0 0.00 0.01 0.01 37 1013.4
20210804194642 86 256 1.0 5.0 0.00 0.01 0.01 39 1013.4
20210804193121 86 40 0.0 4.0 0.00 0.01 0.01 39 1013.5
20210804191557 85 226 1.0 5.0 0.00 0.01 0.01 39 1013.6
20210804190158 84 13 2.0 4.0 0.00 0.01 0.01 41 1013.7
20210804184613 84 167 1.0 8.0 0.00 0.01 0.01 41 1013.9
20210804183132 82 15 0.0 4.0 0.00 0.01 0.01 43 1014.1
20210804181550 81 173 0.0 4.0 0.00 0.01 0.01 45 1014.2
20210804180044 80 218 0.0 4.0 0.00 0.01 0.01 50 1014.3
20210804174536 77 342 1.0 6.0 0.00 0.01 0.01 55 1014.5
20210804173040 76 258 0.0 3.0 0.00 0.01 0.01 59 1014.4
20210804171526 75 174 1.0 5.0 0.00 0.01 0.01 63 1014.4
20210804170009 74 65 1.0 4.0 0.00 0.01 0.01 64 1014.6
20210804164503 73 167 1.0 3.0 0.00 0.01 0.01 68 1014.6
20210804163348 72 39 0.0 3.0 0.00 0.01 0.01 69 1014.6
20210804161645 71 190 3.0 6.0 0.00 0.01 0.01 70 1014.6
20210804160208 70 225 0.0 3.0 0.00 0.01 0.01 71 1014.6
20210804154646 69 225 1.0 2.0 0.00 0.01 0.01 76 1014.6
20210804153120 67 225 0.0 0.0 0.00 0.01 0.01 78 1014.8
20210804151645 66 225 0.0 0.0 0.00 0.01 0.01 79 1014.8
20210804150248 65 9 0.0 0.0 0.00 0.01 0.01 84 1014.8
20210804144657 64 11 0.0 1.0 0.01 0.01 0.01 84 1014.8
20210804143112 63 38 0.0 4.0 0.01 0.01 0.01 86 1014.7
20210804141716 63 71 0.0 4.0 0.01 0.01 0.01 85 1014.5
20210804140134 64 51 1.0 5.0 0.01 0.01 0.01 81 1014.6
20210804134603 67 53 1.0 3.0 0.00 0.00 0.00 75 1014.6
20210804133104 68 58 0.0 2.0 0.00 0.00 0.00 67 1014.3
20210804131717 68 196 0.0 2.0 0.00 0.00 0.00 63 1014.4
20210804130115 68 108 0.0 6.0 0.00 0.00 0.00 63 1014.3
20210804124614 68 92 0.0 3.0 0.00 0.00 0.00 64 1014.1
20210804123137 68 38 0.0 6.0 0.00 0.00 0.00 64 1013.6
20210804121556 69 56 1.0 4.0 0.00 0.00 0.00 63 1013.5
20210804120133 69 34 0.0 3.0 0.00 0.00 0.00 63 1013.5
20210804114546 70 63 0.0 4.0 0.00 0.00 0.00 61 1013.5
20210804113121 70 273 0.0 3.0 0.00 0.00 0.00 61 1013.5
20210804111606 71 76 0.0 4.0 0.00 0.00 0.00 62 1013.1
20210804110030 71 74 2.0 5.0 0.00 0.00 0.00 57 1013.0
20210804104627 71 278 0.0 4.0 0.00 0.00 0.00 57 1012.8
20210804103034 71 219 1.0 8.0 0.00 0.00 0.00 58 1012.8
20210804101551 71 209 1.0 4.0 0.00 0.00 0.00 60 1012.7
20210804100037 71 290 1.0 8.0 0.00 0.00 0.00 62 1012.7
20210804094532 72 308 1.0 5.0 0.00 0.00 0.00 60 1012.8
20210804093039 72 5 1.0 6.0 0.00 0.00 0.00 60 1012.9
20210804091627 72 260 2.0 7.0 0.00 0.00 0.00 59 1013.0
20210804090031 72 236 1.0 4.0 0.00 0.00 0.00 59 1012.9
20210804084526 72 297 1.0 5.0 0.00 0.00 0.00 58 1012.9
20210804083108 71 34 1.0 6.0 0.00 0.00 0.00 57 1012.9
20210804081527 71 360 1.0 4.0 0.00 0.00 0.00 57 1012.8
20210804080054 71 63 1.0 4.0 0.00 0.00 0.00 57 1012.9
20210804074516 71 37 1.0 6.0 0.00 0.00 0.00 56 1013.2
20210804073056 72 75 1.0 6.0 0.00 0.00 0.00 56 1013.4
20210804071534 72 67 0.0 4.0 0.00 0.00 0.00 55 1013.4
20210804070035 72 94 1.0 9.0 0.00 0.00 0.00 55 1013.5
20210804064520 72 46 0.0 5.0 0.00 0.00 0.00 55 1013.5
20210804063102 72 53 1.0 4.0 0.00 0.00 0.00 55 1013.7
20210804061529 72 100 1.0 4.0 0.00 0.00 0.00 55 1013.5
20210804054538 73 40 0.0 5.0 0.00 0.00 0.00 53 1013.8
20210804053041 74 32 1.0 4.0 0.00 0.00 0.00 52 1014.0
20210804051543 74 66 1.0 7.0 0.00 0.00 0.00 50 1014.0
20210804050040 75 72 1.0 5.0 0.00 0.00 0.00 48 1014.2
20210804044522 76 88 1.0 4.0 0.00 0.00 0.00 45 1014.2
20210804043013 76 69 1.0 10.0 0.00 0.00 0.00 44 1014.2
20210804041541 76 60 1.0 4.0 0.00 0.00 0.00 44 1014.3
20210804040010 75 21 2.0 5.0 0.00 0.00 0.00 45 1014.2
20210804034511 75 60 1.0 3.0 0.00 0.00 0.00 45 1014.1
20210804033016 75 79 1.0 2.0 0.00 0.00 0.00 45 1013.9
20210804031515 75 80 0.0 2.0 0.00 0.00 0.00 44 1013.5
20210804030012 76 55 0.0 0.0 0.00 0.00 0.00 43 1013.2
20210804024509 78 55 0.0 0.0 0.00 0.00 0.00 41 1013.1
20210804023021 80 55 0.0 1.0 0.00 0.00 0.00 39 1012.8
20210804021519 81 84 0.0 2.0 0.00 0.00 0.00 37 1012.6
20210804020008 83 78 0.0 2.0 0.00 0.00 0.00 34 1012.3
20210804014512 85 75 0.0 1.0 0.00 0.00 0.00 31 1012.1
20210804013051 86 76 0.0 2.0 0.00 0.00 0.00 30 1012.0
20210804011512 86 61 0.0 2.0 0.00 0.00 0.00 30 1011.8